NSZ455 EYVI-ESSA
Flight info
| Callsign | NSZ455 |
|---|---|
| Flight time | 1h 11m |
| Altitude | 34000 |
| Route | ELEKA DCT ASKOR DCT NEKET DCT TOMBU N616 XILAN |
| Aircraft | B38M/M-SDE1FGHILORVWXY/HB1 |
Departure
| Time | 2026-05-08 16:08 |
|---|---|
| Airport | Vilnius International Airport (EYVI) |
Arrival
| Time | 2026-05-08 17:20 |
|---|---|
| Airport | Stockholm-Arlanda Airport (ESSA) |
| Time | Latitude | Longitude | Altitude | Speed | Heading |
|---|---|---|---|---|---|
| 2026-05-08 15:49 | 54.64452 | 25.28521 | 649 ft | 0 kts | 176° |
| 2026-05-08 16:00 | 54.64444 | 25.28522 | 648 ft | 3 kts | 176° |
| 2026-05-08 16:00 | 54.64408 | 25.28502 | 647 ft | 8 kts | 234° |
| 2026-05-08 16:00 | 54.64385 | 25.28387 | 642 ft | 10 kts | 200° |
| 2026-05-08 16:01 | 54.64296 | 25.28374 | 640 ft | 15 kts | 190° |
| 2026-05-08 16:01 | 54.64201 | 25.28345 | 641 ft | 11 kts | 199° |
| 2026-05-08 16:01 | 54.64170 | 25.28220 | 640 ft | 12 kts | 258° |
| 2026-05-08 16:01 | 54.64128 | 25.28162 | 639 ft | 9 kts | 168° |
| 2026-05-08 16:02 | 54.64056 | 25.28190 | 639 ft | 12 kts | 168° |
| 2026-05-08 16:02 | 54.63956 | 25.28229 | 637 ft | 17 kts | 167° |
| 2026-05-08 16:02 | 54.63827 | 25.28279 | 636 ft | 20 kts | 168° |
| 2026-05-08 16:02 | 54.63702 | 25.28327 | 631 ft | 23 kts | 167° |
| 2026-05-08 16:04 | 54.63694 | 25.28330 | 633 ft | 23 kts | 167° |
| 2026-05-08 16:04 | 54.63568 | 25.28368 | 619 ft | 18 kts | 188° |
| 2026-05-08 16:04 | 54.63433 | 25.28283 | 614 ft | 23 kts | 201° |
| 2026-05-08 16:05 | 54.63282 | 25.28178 | 614 ft | 24 kts | 202° |
| 2026-05-08 16:05 | 54.63120 | 25.28066 | 615 ft | 27 kts | 202° |
| 2026-05-08 16:05 | 54.62979 | 25.27968 | 607 ft | 18 kts | 201° |
| 2026-05-08 16:05 | 54.62856 | 25.27883 | 608 ft | 21 kts | 202° |
| 2026-05-08 16:06 | 54.62711 | 25.27782 | 603 ft | 24 kts | 202° |
| 2026-05-08 16:06 | 54.62606 | 25.27707 | 618 ft | 16 kts | 202° |
| 2026-05-08 16:06 | 54.62530 | 25.27664 | 609 ft | 8 kts | 180° |
| 2026-05-08 16:06 | 54.62483 | 25.27702 | 621 ft | 7 kts | 138° |
| 2026-05-08 16:07 | 54.62442 | 25.27763 | 611 ft | 9 kts | 141° |
| 2026-05-08 16:07 | 54.62403 | 25.27842 | 614 ft | 4 kts | 96° |
| 2026-05-08 16:07 | 54.62417 | 25.27894 | 615 ft | 5 kts | 40° |
| 2026-05-08 16:07 | 54.62463 | 25.27922 | 605 ft | 10 kts | 18° |
| 2026-05-08 16:08 | 54.62567 | 25.27993 | 604 ft | 26 kts | 22° |
| 2026-05-08 16:08 | 54.62933 | 25.28244 | 603 ft | 96 kts | 21° |
| 2026-05-08 16:08 | 54.63768 | 25.28824 | 684 ft | 155 kts | 22° |
| 2026-05-08 16:08 | 54.64793 | 25.29533 | 1543 ft | 157 kts | 24° |
| 2026-05-08 16:09 | 54.65773 | 25.30192 | 2617 ft | 150 kts | 25° |
| 2026-05-08 16:09 | 54.66433 | 25.30630 | 3157 ft | 154 kts | 26° |
| 2026-05-08 16:09 | 54.67859 | 25.31618 | 3959 ft | 175 kts | 27° |
| 2026-05-08 16:09 | 54.69052 | 25.32475 | 4336 ft | 203 kts | 28° |
| 2026-05-08 16:10 | 54.70358 | 25.33421 | 5203 ft | 204 kts | 27° |
| 2026-05-08 16:10 | 54.71712 | 25.34386 | 5980 ft | 211 kts | 26° |
| 2026-05-08 16:10 | 54.73082 | 25.35366 | 6734 ft | 222 kts | 26° |
| 2026-05-08 16:10 | 54.74551 | 25.36406 | 7457 ft | 230 kts | 24° |
| 2026-05-08 16:11 | 54.76122 | 25.36889 | 8212 ft | 243 kts | 355° |
| 2026-05-08 16:11 | 54.77705 | 25.35761 | 9033 ft | 252 kts | 329° |
| 2026-05-08 16:11 | 54.79041 | 25.33699 | 9723 ft | 266 kts | 308° |
| 2026-05-08 16:11 | 54.79815 | 25.30721 | 10317 ft | 280 kts | 281° |
| 2026-05-08 16:12 | 54.79740 | 25.27457 | 11369 ft | 269 kts | 254° |
| 2026-05-08 16:12 | 54.78942 | 25.24601 | 12221 ft | 267 kts | 230° |
| 2026-05-08 16:12 | 54.77535 | 25.22387 | 12678 ft | 281 kts | 207° |
| 2026-05-08 16:12 | 54.75660 | 25.21176 | 13130 ft | 296 kts | 187° |
| 2026-05-08 16:13 | 54.73571 | 25.20475 | 13565 ft | 317 kts | 198° |
| 2026-05-08 16:13 | 54.71594 | 25.18680 | 14246 ft | 329 kts | 216° |
| 2026-05-08 16:13 | 54.70123 | 25.15614 | 15020 ft | 336 kts | 242° |
| 2026-05-08 16:13 | 54.69449 | 25.11721 | 15876 ft | 344 kts | 262° |
| 2026-05-08 16:14 | 54.69442 | 25.09141 | 16397 ft | 348 kts | 275° |
| 2026-05-08 16:14 | 54.70190 | 25.05095 | 17261 ft | 354 kts | 295° |
| 2026-05-08 16:14 | 54.71324 | 25.01277 | 18009 ft | 359 kts | 293° |
| 2026-05-08 16:14 | 54.72404 | 24.97357 | 18711 ft | 363 kts | 292° |
| 2026-05-08 16:15 | 54.73836 | 24.92079 | 19601 ft | 368 kts | 292° |
| 2026-05-08 16:15 | 54.74566 | 24.89365 | 20044 ft | 370 kts | 292° |
| 2026-05-08 16:15 | 54.75658 | 24.85299 | 20711 ft | 374 kts | 292° |
| 2026-05-08 16:15 | 54.76744 | 24.81247 | 21337 ft | 377 kts | 291° |
| 2026-05-08 16:16 | 54.77852 | 24.77107 | 21989 ft | 380 kts | 291° |
| 2026-05-08 16:16 | 54.78969 | 24.72929 | 22621 ft | 384 kts | 292° |
| 2026-05-08 16:16 | 54.80430 | 24.69018 | 23249 ft | 392 kts | 310° |
| 2026-05-08 16:16 | 54.82527 | 24.65949 | 23844 ft | 398 kts | 321° |
| 2026-05-08 16:17 | 54.84767 | 24.63077 | 24315 ft | 402 kts | 321° |
| 2026-05-08 16:17 | 54.87035 | 24.60190 | 24831 ft | 405 kts | 321° |
| 2026-05-08 16:17 | 54.89320 | 24.57305 | 25325 ft | 408 kts | 321° |
| 2026-05-08 16:17 | 54.91626 | 24.54404 | 25809 ft | 411 kts | 321° |
| 2026-05-08 16:18 | 54.93955 | 24.51474 | 26282 ft | 414 kts | 321° |
| 2026-05-08 16:18 | 54.96299 | 24.48523 | 26768 ft | 417 kts | 321° |
| 2026-05-08 16:18 | 54.98654 | 24.45555 | 27243 ft | 420 kts | 321° |
| 2026-05-08 16:18 | 55.01029 | 24.42557 | 27699 ft | 423 kts | 321° |
| 2026-05-08 16:19 | 55.03418 | 24.39538 | 28144 ft | 426 kts | 321° |
| 2026-05-08 16:19 | 55.05816 | 24.36501 | 28592 ft | 428 kts | 321° |
| 2026-05-08 16:19 | 55.08242 | 24.33425 | 29037 ft | 431 kts | 320° |
| 2026-05-08 16:19 | 55.10675 | 24.30336 | 29455 ft | 434 kts | 320° |
| 2026-05-08 16:20 | 55.13124 | 24.27220 | 29873 ft | 437 kts | 320° |
| 2026-05-08 16:20 | 55.15560 | 24.24118 | 30276 ft | 439 kts | 320° |
| 2026-05-08 16:20 | 55.18037 | 24.20958 | 30629 ft | 442 kts | 320° |
| 2026-05-08 16:20 | 55.20528 | 24.17775 | 30964 ft | 445 kts | 320° |
| 2026-05-08 16:21 | 55.23032 | 24.14570 | 31300 ft | 447 kts | 320° |
| 2026-05-08 16:21 | 55.25553 | 24.11338 | 31639 ft | 450 kts | 320° |
| 2026-05-08 16:21 | 55.28090 | 24.08081 | 32012 ft | 451 kts | 320° |
| 2026-05-08 16:21 | 55.30617 | 24.04831 | 32455 ft | 451 kts | 319° |
| 2026-05-08 16:22 | 55.33145 | 24.01574 | 32889 ft | 450 kts | 319° |
| 2026-05-08 16:22 | 55.35670 | 23.98315 | 33328 ft | 450 kts | 319° |
| 2026-05-08 16:22 | 55.38188 | 23.95062 | 33778 ft | 449 kts | 319° |
| 2026-05-08 16:22 | 55.40706 | 23.91802 | 34127 ft | 450 kts | 319° |
| 2026-05-08 16:23 | 55.45740 | 23.85271 | 34170 ft | 447 kts | 318° |
| 2026-05-08 16:23 | 55.50715 | 23.78796 | 34155 ft | 446 kts | 318° |
| 2026-05-08 16:24 | 55.55704 | 23.72280 | 34158 ft | 446 kts | 318° |
| 2026-05-08 16:24 | 55.60689 | 23.65748 | 34169 ft | 445 kts | 318° |
| 2026-05-08 16:25 | 55.65667 | 23.59205 | 34174 ft | 445 kts | 317° |
| 2026-05-08 16:25 | 55.70623 | 23.52669 | 34181 ft | 444 kts | 317° |
| 2026-05-08 16:26 | 55.75581 | 23.46111 | 34187 ft | 444 kts | 317° |
| 2026-05-08 16:26 | 55.80522 | 23.39552 | 34189 ft | 443 kts | 317° |
| 2026-05-08 16:27 | 55.85463 | 23.32976 | 34188 ft | 442 kts | 317° |
| 2026-05-08 16:27 | 55.90380 | 23.26404 | 34186 ft | 442 kts | 317° |
| 2026-05-08 16:28 | 55.95302 | 23.19807 | 34187 ft | 442 kts | 317° |
| 2026-05-08 16:28 | 56.00205 | 23.13215 | 34190 ft | 441 kts | 317° |
| 2026-05-08 16:29 | 56.05069 | 23.06652 | 34194 ft | 441 kts | 317° |
| 2026-05-08 16:29 | 56.09960 | 23.00033 | 34199 ft | 440 kts | 316° |
| 2026-05-08 16:30 | 56.14840 | 22.93407 | 34206 ft | 439 kts | 316° |
| 2026-05-08 16:30 | 56.19706 | 22.86778 | 34206 ft | 439 kts | 316° |
| 2026-05-08 16:31 | 56.24566 | 22.80136 | 34218 ft | 438 kts | 316° |
| 2026-05-08 16:31 | 56.27653 | 22.75910 | 34212 ft | 438 kts | 316° |
| 2026-05-08 16:32 | 56.32493 | 22.69265 | 34218 ft | 437 kts | 316° |
| 2026-05-08 16:32 | 56.37322 | 22.62616 | 34217 ft | 436 kts | 317° |
| 2026-05-08 16:33 | 56.42597 | 22.56982 | 34232 ft | 442 kts | 325° |
| 2026-05-08 16:33 | 56.47972 | 22.51592 | 34224 ft | 441 kts | 325° |
| 2026-05-08 16:34 | 56.53343 | 22.46200 | 34222 ft | 440 kts | 325° |
| 2026-05-08 16:34 | 56.58654 | 22.40850 | 34228 ft | 439 kts | 325° |
| 2026-05-08 16:35 | 56.64002 | 22.35448 | 34233 ft | 438 kts | 325° |
| 2026-05-08 16:35 | 56.69328 | 22.30048 | 34233 ft | 438 kts | 325° |
| 2026-05-08 16:36 | 56.74644 | 22.24641 | 34241 ft | 437 kts | 324° |
| 2026-05-08 16:36 | 56.79947 | 22.19231 | 34238 ft | 436 kts | 324° |
| 2026-05-08 16:37 | 56.85209 | 22.13843 | 34247 ft | 436 kts | 324° |
| 2026-05-08 16:37 | 56.90496 | 22.08413 | 34247 ft | 435 kts | 324° |
| 2026-05-08 16:38 | 56.95766 | 22.02983 | 34250 ft | 434 kts | 324° |
| 2026-05-08 16:38 | 57.01029 | 21.97542 | 34256 ft | 433 kts | 324° |
| 2026-05-08 16:39 | 57.06247 | 21.92130 | 34258 ft | 433 kts | 324° |
| 2026-05-08 16:39 | 57.11516 | 21.86648 | 34256 ft | 432 kts | 324° |
| 2026-05-08 16:40 | 57.16689 | 21.81247 | 34266 ft | 431 kts | 324° |
| 2026-05-08 16:40 | 57.21962 | 21.75724 | 34268 ft | 431 kts | 324° |
| 2026-05-08 16:41 | 57.27093 | 21.70332 | 34271 ft | 430 kts | 324° |
| 2026-05-08 16:42 | 57.34933 | 21.62060 | 34266 ft | 430 kts | 324° |
| 2026-05-08 16:42 | 57.40115 | 21.56571 | 34269 ft | 429 kts | 324° |
| 2026-05-08 16:43 | 57.45199 | 21.51167 | 34269 ft | 428 kts | 324° |
| 2026-05-08 16:43 | 57.50357 | 21.45666 | 34270 ft | 427 kts | 324° |
| 2026-05-08 16:44 | 57.55501 | 21.40162 | 34275 ft | 426 kts | 324° |
| 2026-05-08 16:44 | 57.60475 | 21.34823 | 34282 ft | 425 kts | 324° |
| 2026-05-08 16:45 | 57.65590 | 21.29314 | 34286 ft | 424 kts | 324° |
| 2026-05-08 16:45 | 57.70692 | 21.23802 | 34288 ft | 423 kts | 324° |
| 2026-05-08 16:46 | 57.75774 | 21.18292 | 34296 ft | 422 kts | 324° |
| 2026-05-08 16:46 | 57.80845 | 21.12778 | 34302 ft | 420 kts | 324° |
| 2026-05-08 16:47 | 57.85890 | 21.07273 | 34304 ft | 419 kts | 324° |
| 2026-05-08 16:47 | 57.90924 | 21.01761 | 34307 ft | 418 kts | 325° |
| 2026-05-08 16:48 | 57.95937 | 20.96257 | 34307 ft | 417 kts | 325° |
| 2026-05-08 16:48 | 58.00936 | 20.90749 | 34308 ft | 415 kts | 325° |
| 2026-05-08 16:49 | 58.05879 | 20.85283 | 34314 ft | 414 kts | 325° |
| 2026-05-08 16:49 | 58.10844 | 20.79777 | 34322 ft | 413 kts | 325° |
| 2026-05-08 16:50 | 58.15797 | 20.74268 | 34318 ft | 412 kts | 325° |
| 2026-05-08 16:50 | 58.20737 | 20.68759 | 34324 ft | 411 kts | 325° |
| 2026-05-08 16:51 | 58.25662 | 20.63248 | 34330 ft | 411 kts | 325° |
| 2026-05-08 16:51 | 58.30590 | 20.57765 | 34328 ft | 410 kts | 327° |
| 2026-05-08 16:52 | 58.35468 | 20.52604 | 34336 ft | 410 kts | 327° |
| 2026-05-08 16:52 | 58.40442 | 20.47306 | 34335 ft | 409 kts | 326° |
| 2026-05-08 16:53 | 58.47896 | 20.39331 | 34347 ft | 408 kts | 326° |
| 2026-05-08 16:53 | 58.52807 | 20.34054 | 34341 ft | 407 kts | 326° |
| 2026-05-08 16:54 | 58.57680 | 20.28803 | 34364 ft | 390 kts | 326° |
| 2026-05-08 16:54 | 58.62368 | 20.23733 | 34349 ft | 384 kts | 326° |
| 2026-05-08 16:55 | 58.64675 | 20.21234 | 34227 ft | 377 kts | 326° |
| 2026-05-08 16:55 | 58.66965 | 20.18747 | 33630 ft | 378 kts | 326° |
| 2026-05-08 16:55 | 58.69218 | 20.16296 | 33005 ft | 379 kts | 325° |
| 2026-05-08 16:55 | 58.71534 | 20.13774 | 32159 ft | 386 kts | 325° |
| 2026-05-08 16:56 | 58.73895 | 20.11200 | 31342 ft | 393 kts | 325° |
| 2026-05-08 16:56 | 58.76273 | 20.08603 | 30818 ft | 391 kts | 325° |
| 2026-05-08 16:56 | 58.78626 | 20.06031 | 30412 ft | 387 kts | 325° |
| 2026-05-08 16:56 | 58.80958 | 20.03476 | 29980 ft | 381 kts | 325° |
| 2026-05-08 16:57 | 58.83242 | 20.00971 | 29686 ft | 373 kts | 324° |
| 2026-05-08 16:57 | 58.85476 | 19.98515 | 29325 ft | 367 kts | 324° |
| 2026-05-08 16:57 | 58.87689 | 19.96080 | 28901 ft | 363 kts | 324° |
| 2026-05-08 16:57 | 58.89868 | 19.93678 | 28502 ft | 359 kts | 324° |
| 2026-05-08 16:58 | 58.92025 | 19.91297 | 28135 ft | 354 kts | 324° |
| 2026-05-08 16:58 | 58.94149 | 19.88949 | 27809 ft | 349 kts | 324° |
| 2026-05-08 16:58 | 58.96244 | 19.86630 | 27444 ft | 345 kts | 324° |
| 2026-05-08 16:58 | 58.98317 | 19.84331 | 27071 ft | 342 kts | 324° |
| 2026-05-08 16:59 | 59.00369 | 19.82054 | 26690 ft | 339 kts | 324° |
| 2026-05-08 16:59 | 59.02414 | 19.79781 | 26323 ft | 336 kts | 324° |
| 2026-05-08 16:59 | 59.04436 | 19.77529 | 25952 ft | 334 kts | 324° |
| 2026-05-08 16:59 | 59.06432 | 19.75305 | 25580 ft | 326 kts | 324° |
| 2026-05-08 17:00 | 59.08368 | 19.73146 | 25242 ft | 315 kts | 323° |
| 2026-05-08 17:00 | 59.10213 | 19.71084 | 24913 ft | 304 kts | 323° |
| 2026-05-08 17:00 | 59.12020 | 19.69061 | 24585 ft | 295 kts | 323° |
| 2026-05-08 17:00 | 59.13800 | 19.67065 | 24260 ft | 300 kts | 323° |
| 2026-05-08 17:01 | 59.15624 | 19.65020 | 23916 ft | 304 kts | 323° |
| 2026-05-08 17:01 | 59.17466 | 19.62953 | 23536 ft | 306 kts | 323° |
| 2026-05-08 17:01 | 59.18713 | 19.61553 | 23287 ft | 306 kts | 323° |
| 2026-05-08 17:01 | 59.21151 | 19.58810 | 22842 ft | 304 kts | 323° |
| 2026-05-08 17:02 | 59.22367 | 19.57441 | 22624 ft | 304 kts | 323° |
| 2026-05-08 17:02 | 59.24191 | 19.55381 | 22245 ft | 302 kts | 323° |
| 2026-05-08 17:02 | 59.26002 | 19.53334 | 21945 ft | 300 kts | 323° |
| 2026-05-08 17:02 | 59.27814 | 19.51286 | 21636 ft | 300 kts | 323° |
| 2026-05-08 17:03 | 59.29617 | 19.49246 | 21327 ft | 298 kts | 323° |
| 2026-05-08 17:03 | 59.31407 | 19.47216 | 21017 ft | 296 kts | 323° |
| 2026-05-08 17:03 | 59.33189 | 19.45195 | 20706 ft | 295 kts | 323° |
| 2026-05-08 17:03 | 59.34940 | 19.43208 | 20401 ft | 293 kts | 323° |
| 2026-05-08 17:04 | 59.36699 | 19.41208 | 20094 ft | 290 kts | 323° |
| 2026-05-08 17:04 | 59.38430 | 19.39237 | 19802 ft | 286 kts | 323° |
| 2026-05-08 17:04 | 59.40143 | 19.37282 | 19495 ft | 282 kts | 323° |
| 2026-05-08 17:04 | 59.41752 | 19.35145 | 19194 ft | 277 kts | 318° |
| 2026-05-08 17:05 | 59.43300 | 19.32926 | 18890 ft | 274 kts | 318° |
| 2026-05-08 17:05 | 59.44832 | 19.30711 | 18579 ft | 272 kts | 318° |
| 2026-05-08 17:05 | 59.46362 | 19.28476 | 18241 ft | 276 kts | 318° |
| 2026-05-08 17:05 | 59.47911 | 19.26189 | 17932 ft | 280 kts | 318° |
| 2026-05-08 17:06 | 59.49446 | 19.23903 | 17645 ft | 280 kts | 318° |
| 2026-05-08 17:06 | 59.50995 | 19.21575 | 17349 ft | 280 kts | 318° |
| 2026-05-08 17:06 | 59.52535 | 19.19242 | 17061 ft | 279 kts | 318° |
| 2026-05-08 17:06 | 59.54069 | 19.16904 | 16773 ft | 277 kts | 318° |
| 2026-05-08 17:07 | 59.55589 | 19.14572 | 16494 ft | 276 kts | 318° |
| 2026-05-08 17:07 | 59.57098 | 19.12239 | 16212 ft | 275 kts | 318° |
| 2026-05-08 17:07 | 59.58584 | 19.09867 | 15946 ft | 273 kts | 312° |
| 2026-05-08 17:07 | 59.59716 | 19.06953 | 15750 ft | 266 kts | 299° |
| 2026-05-08 17:08 | 59.60648 | 19.03787 | 15614 ft | 267 kts | 298° |
| 2026-05-08 17:08 | 59.61571 | 19.00577 | 15298 ft | 268 kts | 298° |
| 2026-05-08 17:08 | 59.62482 | 18.97372 | 14825 ft | 267 kts | 298° |
| 2026-05-08 17:08 | 59.63380 | 18.94177 | 14369 ft | 265 kts | 298° |
| 2026-05-08 17:09 | 59.64266 | 18.90994 | 14008 ft | 263 kts | 298° |
| 2026-05-08 17:09 | 59.65143 | 18.87823 | 13751 ft | 263 kts | 298° |
| 2026-05-08 17:09 | 59.66010 | 18.84681 | 13580 ft | 263 kts | 298° |
| 2026-05-08 17:09 | 59.66883 | 18.81507 | 13341 ft | 262 kts | 298° |
| 2026-05-08 17:10 | 59.67751 | 18.78341 | 12994 ft | 261 kts | 298° |
| 2026-05-08 17:10 | 59.68611 | 18.75192 | 12648 ft | 260 kts | 298° |
| 2026-05-08 17:10 | 59.69469 | 18.72043 | 12315 ft | 260 kts | 298° |
| 2026-05-08 17:10 | 59.70326 | 18.68889 | 11973 ft | 260 kts | 298° |
| 2026-05-08 17:11 | 59.71178 | 18.65736 | 11632 ft | 259 kts | 298° |
| 2026-05-08 17:11 | 59.72025 | 18.62592 | 11283 ft | 258 kts | 297° |
| 2026-05-08 17:11 | 59.72869 | 18.59449 | 10900 ft | 258 kts | 297° |
| 2026-05-08 17:11 | 59.73705 | 18.56318 | 10498 ft | 257 kts | 297° |
| 2026-05-08 17:12 | 59.74526 | 18.53235 | 10099 ft | 256 kts | 297° |
| 2026-05-08 17:12 | 59.75354 | 18.50118 | 9649 ft | 255 kts | 297° |
| 2026-05-08 17:12 | 59.76180 | 18.47009 | 9217 ft | 255 kts | 298° |
| 2026-05-08 17:12 | 59.77008 | 18.43894 | 8790 ft | 254 kts | 298° |
| 2026-05-08 17:13 | 59.77834 | 18.40786 | 8354 ft | 254 kts | 297° |
| 2026-05-08 17:13 | 59.78654 | 18.37699 | 7927 ft | 254 kts | 297° |
| 2026-05-08 17:13 | 59.79488 | 18.34631 | 7504 ft | 253 kts | 303° |
| 2026-05-08 17:13 | 59.80593 | 18.31922 | 7088 ft | 252 kts | 306° |
| 2026-05-08 17:14 | 59.81292 | 18.28778 | 6654 ft | 249 kts | 282° |
| 2026-05-08 17:14 | 59.81549 | 18.25401 | 6192 ft | 246 kts | 277° |
| 2026-05-08 17:14 | 59.81761 | 18.22060 | 5846 ft | 238 kts | 277° |
| 2026-05-08 17:14 | 59.81964 | 18.18887 | 5489 ft | 233 kts | 277° |
| 2026-05-08 17:15 | 59.82170 | 18.15709 | 5055 ft | 231 kts | 277° |
| 2026-05-08 17:15 | 59.82377 | 18.12569 | 4620 ft | 229 kts | 277° |
| 2026-05-08 17:15 | 59.82583 | 18.09444 | 4196 ft | 227 kts | 276° |
| 2026-05-08 17:15 | 59.82409 | 18.06386 | 3758 ft | 224 kts | 245° |
| 2026-05-08 17:16 | 59.81540 | 18.03889 | 3485 ft | 215 kts | 228° |
| 2026-05-08 17:16 | 59.80567 | 18.01719 | 3270 ft | 205 kts | 227° |
| 2026-05-08 17:16 | 59.79604 | 17.99702 | 2990 ft | 199 kts | 216° |
| 2026-05-08 17:16 | 59.78348 | 17.98706 | 2648 ft | 194 kts | 182° |
| 2026-05-08 17:17 | 59.77050 | 17.99049 | 2523 ft | 183 kts | 168° |
| 2026-05-08 17:17 | 59.75783 | 17.99379 | 2502 ft | 185 kts | 176° |
| 2026-05-08 17:17 | 59.74497 | 17.99315 | 2332 ft | 184 kts | 185° |
| 2026-05-08 17:17 | 59.73232 | 17.98933 | 2062 ft | 181 kts | 189° |
| 2026-05-08 17:18 | 59.72027 | 17.98486 | 1819 ft | 168 kts | 190° |
| 2026-05-08 17:18 | 59.70938 | 17.98087 | 1603 ft | 158 kts | 189° |
| 2026-05-08 17:18 | 59.69892 | 17.97706 | 1384 ft | 146 kts | 189° |
| 2026-05-08 17:18 | 59.68908 | 17.97348 | 1158 ft | 141 kts | 188° |
| 2026-05-08 17:19 | 59.67953 | 17.97005 | 888 ft | 138 kts | 189° |
| 2026-05-08 17:19 | 59.67043 | 17.96670 | 639 ft | 137 kts | 189° |
| 2026-05-08 17:19 | 59.66112 | 17.96322 | 417 ft | 135 kts | 187° |
| 2026-05-08 17:19 | 59.65191 | 17.96002 | 245 ft | 134 kts | 189° |
| 2026-05-08 17:20 | 59.64301 | 17.95682 | 148 ft | 118 kts | 189° |
| 2026-05-08 17:20 | 59.63733 | 17.95474 | 147 ft | 56 kts | 190° |
| 2026-05-08 17:20 | 59.63467 | 17.95352 | 147 ft | 33 kts | 205° |
| 2026-05-08 17:20 | 59.63320 | 17.95171 | 141 ft | 21 kts | 221° |
| 2026-05-08 17:21 | 59.63240 | 17.95000 | 141 ft | 9 kts | 255° |
| 2026-05-08 17:21 | 59.63247 | 17.94937 | 140 ft | 3 kts | 313° |
| 2026-05-08 17:21 | 59.63302 | 17.94902 | 140 ft | 11 kts | 11° |
| 2026-05-08 17:21 | 59.63383 | 17.94938 | 140 ft | 11 kts | 10° |
| 2026-05-08 17:22 | 59.63502 | 17.94981 | 140 ft | 23 kts | 10° |
| 2026-05-08 17:22 | 59.63678 | 17.95045 | 140 ft | 24 kts | 10° |
| 2026-05-08 17:22 | 59.63786 | 17.95083 | 140 ft | 12 kts | 9° |
| 2026-05-08 17:22 | 59.63903 | 17.95126 | 140 ft | 23 kts | 10° |
| 2026-05-08 17:23 | 59.64064 | 17.95184 | 140 ft | 20 kts | 10° |
| 2026-05-08 17:23 | 59.64238 | 17.95247 | 140 ft | 31 kts | 12° |
| 2026-05-08 17:23 | 59.64405 | 17.95307 | 140 ft | 22 kts | 10° |
| 2026-05-08 17:23 | 59.64585 | 17.95372 | 140 ft | 22 kts | 11° |
| 2026-05-08 17:24 | 59.64743 | 17.95432 | 140 ft | 19 kts | 10° |
| 2026-05-08 17:24 | 59.64890 | 17.95482 | 140 ft | 27 kts | 11° |
| 2026-05-08 17:24 | 59.65047 | 17.95508 | 140 ft | 20 kts | 347° |
| 2026-05-08 17:24 | 59.65182 | 17.95441 | 140 ft | 20 kts | 346° |
| 2026-05-08 17:25 | 59.65355 | 17.95355 | 140 ft | 31 kts | 344° |
| 2026-05-08 17:25 | 59.65538 | 17.95257 | 140 ft | 32 kts | 344° |
| 2026-05-08 17:25 | 59.65671 | 17.95186 | 140 ft | 22 kts | 345° |
| 2026-05-08 17:25 | 59.65752 | 17.95050 | 140 ft | 19 kts | 267° |
| 2026-05-08 17:26 | 59.65723 | 17.94810 | 140 ft | 21 kts | 256° |
| 2026-05-08 17:26 | 59.65681 | 17.94495 | 140 ft | 23 kts | 256° |
| 2026-05-08 17:26 | 59.65652 | 17.94261 | 140 ft | 16 kts | 256° |
| 2026-05-08 17:26 | 59.65621 | 17.94014 | 140 ft | 21 kts | 256° |
| 2026-05-08 17:27 | 59.65589 | 17.93757 | 140 ft | 22 kts | 255° |
| 2026-05-08 17:27 | 59.65550 | 17.93460 | 140 ft | 22 kts | 255° |
| 2026-05-08 17:27 | 59.65514 | 17.93172 | 140 ft | 23 kts | 256° |
| 2026-05-08 17:27 | 59.65475 | 17.92901 | 140 ft | 17 kts | 247° |
| 2026-05-08 17:28 | 59.65427 | 17.92704 | 140 ft | 7 kts | 240° |
| 2026-05-08 17:28 | 59.65388 | 17.92596 | 140 ft | 12 kts | 228° |
| 2026-05-08 17:28 | 59.65306 | 17.92487 | 140 ft | 14 kts | 181° |
| 2026-05-08 17:28 | 59.65254 | 17.92591 | 140 ft | 11 kts | 112° |
| 2026-05-08 17:29 | 59.65224 | 17.92758 | 140 ft | 14 kts | 107° |
| 2026-05-08 17:29 | 59.65216 | 17.92800 | 140 ft | 4 kts | 116° |
| 2026-05-08 17:29 | 59.65191 | 17.92828 | 140 ft | 2 kts | 169° |
| 2026-05-08 17:29 | 59.65160 | 17.92819 | 140 ft | 7 kts | 191° |
| 2026-05-08 17:30 | 59.65143 | 17.92812 | 140 ft | 3 kts | 191° |
| 2026-05-08 17:30 | 59.65139 | 17.92810 | 140 ft | 0 kts | 191° |
| 2026-05-08 17:32 | 59.65142 | 17.92811 | 141 ft | 3 kts | 191° |